createdAt,value
2022-10-02T00:01:32.826Z,90.25
2022-10-02T00:04:01.711Z,90.65
2022-10-02T00:06:37.195Z,90.04
2022-10-02T00:09:08.112Z,91.19
2022-10-02T00:11:47.923Z,90.91
2022-10-02T00:14:18.409Z,90.85
2022-10-02T00:16:50.037Z,91.70
2022-10-02T00:19:19.299Z,91.99
2022-10-02T00:22:31.309Z,92.18
2022-10-02T00:24:58.911Z,91.96
2022-10-02T00:27:44.675Z,92.61
2022-10-02T00:30:16.452Z,93.12
2022-10-02T00:32:49.799Z,92.36
2022-10-02T00:35:35.883Z,92.13
2022-10-02T00:38:46.756Z,92.39
2022-10-02T00:41:46.215Z,92.93
2022-10-02T00:44:35.924Z,93.72
2022-10-02T00:47:12.524Z,93.84
2022-10-02T00:50:16.913Z,93.59
2022-10-02T00:52:58.627Z,93.13
2022-10-02T00:55:28.964Z,92.47
2022-10-02T00:58:16.070Z,92.28
2022-10-02T01:00:53.244Z,92.57
2022-10-02T01:03:26.346Z,92.69
2022-10-02T01:05:54.027Z,93.16
2022-10-02T01:08:21.910Z,93.60
2022-10-02T01:10:49.978Z,92.89
2022-10-02T01:13:17.684Z,92.07
2022-10-02T01:15:52.997Z,91.95
2022-10-02T01:18:21.236Z,92.28
2022-10-02T01:20:54.642Z,91.55
2022-10-02T01:23:33.215Z,91.51
2022-10-02T01:26:01.728Z,90.91
2022-10-02T01:28:29.896Z,90.53
2022-10-02T01:31:03.989Z,91.09
2022-10-02T01:33:32.462Z,91.32
2022-10-02T01:36:00.650Z,90.58
2022-10-02T01:38:29.718Z,90.71
2022-10-02T01:40:57.452Z,90.85
2022-10-02T01:43:33.213Z,90.63
2022-10-02T01:46:35.553Z,91.60
2022-10-02T01:49:22.781Z,91.81
2022-10-02T01:52:22.852Z,91.47
2022-10-02T01:55:20.927Z,90.30
2022-10-02T01:58:06.079Z,90.59
2022-10-02T02:00:59.717Z,91.04
2022-10-02T02:03:41.207Z,91.14
2022-10-02T02:06:39.541Z,91.33
2022-10-02T02:09:15.869Z,92.26
2022-10-02T02:11:52.460Z,91.84
2022-10-02T02:14:46.931Z,91.00
2022-10-02T02:17:19.171Z,91.37
2022-10-02T02:19:52.465Z,92.30
2022-10-02T02:22:26.768Z,92.88
2022-10-02T02:25:08.031Z,94.07
2022-10-02T02:27:43.184Z,94.96
2022-10-02T02:30:14.150Z,95.46
2022-10-02T02:32:53.474Z,95.37
2022-10-02T02:35:27.563Z,95.12
2022-10-02T02:38:03.633Z,95.43
2022-10-02T02:40:36.350Z,95.47
2022-10-02T02:43:14.430Z,95.91
2022-10-02T02:45:49.523Z,95.61
2022-10-02T02:48:25.677Z,95.75
2022-10-02T02:51:08.242Z,95.69
2022-10-02T02:53:40.646Z,96.05
2022-10-02T02:56:13.999Z,96.65
2022-10-02T02:58:51.704Z,96.25
2022-10-02T03:01:19.762Z,96.20
2022-10-02T03:03:47.863Z,96.55
2022-10-02T03:06:22.098Z,96.71
2022-10-02T03:08:51.717Z,97.06
2022-10-02T03:11:50.465Z,96.96
2022-10-02T03:14:47.791Z,96.35
2022-10-02T03:17:39.518Z,96.91
2022-10-02T03:20:29.035Z,97.62
2022-10-02T03:23:18.389Z,97.19
2022-10-02T03:25:53.137Z,97.26
2022-10-02T03:28:53.718Z,96.91
2022-10-02T03:31:20.196Z,96.92
2022-10-02T03:33:50.318Z,96.93
2022-10-02T03:36:20.667Z,96.99
2022-10-02T03:39:00.736Z,97.03
2022-10-02T03:41:37.118Z,97.56
2022-10-02T03:44:04.796Z,97.22
2022-10-02T03:46:32.579Z,96.67
2022-10-02T03:49:00.299Z,96.88
2022-10-02T03:51:28.044Z,97.30
2022-10-02T03:53:55.746Z,96.17
2022-10-02T03:56:29.193Z,96.06
2022-10-02T03:59:01.386Z,96.52
2022-10-02T04:01:48.209Z,97.27
2022-10-02T04:04:23.366Z,97.70
2022-10-02T04:07:02.768Z,97.46
2022-10-02T04:09:55.065Z,96.82
2022-10-02T04:12:33.234Z,95.80
2022-10-02T04:15:07.059Z,97.16
2022-10-02T04:17:44.966Z,96.25
2022-10-02T04:20:37.380Z,97.31
2022-10-02T04:23:15.242Z,97.17
2022-10-02T04:25:52.583Z,97.04
2022-10-02T04:28:26.543Z,97.57
2022-10-02T04:30:54.335Z,99.06
2022-10-02T04:33:24.830Z,97.31
2022-10-02T04:36:10.438Z,97.81
2022-10-02T04:39:09.552Z,97.51
2022-10-02T04:41:42.669Z,97.33
2022-10-02T04:44:30.159Z,97.50
2022-10-02T04:47:16.339Z,96.99
2022-10-02T04:49:56.376Z,96.85
2022-10-02T04:52:33.048Z,96.35
2022-10-02T04:55:42.088Z,96.91
2022-10-02T04:58:33.699Z,96.87
2022-10-02T05:01:07.298Z,96.76
2022-10-02T05:03:35.098Z,96.67
2022-10-02T05:06:33.318Z,97.23
2022-10-02T05:09:12.178Z,97.43
2022-10-02T05:11:57.822Z,97.07
2022-10-02T05:14:45.289Z,96.89
2022-10-02T05:17:50.868Z,96.86
2022-10-02T05:20:30.339Z,97.23
2022-10-02T05:23:19.500Z,96.94
2022-10-02T05:26:20.884Z,96.54
2022-10-02T05:29:17.456Z,96.49
2022-10-02T05:32:08.478Z,96.43
2022-10-02T05:34:49.360Z,96.00
2022-10-02T05:37:44.288Z,96.37
2022-10-02T05:40:26.799Z,96.02
2022-10-02T05:43:12.041Z,96.63
2022-10-02T05:45:44.510Z,95.64
2022-10-02T05:48:27.281Z,95.76
2022-10-02T05:51:10.829Z,96.46
2022-10-02T05:53:45.543Z,96.36
2022-10-02T05:56:39.354Z,95.87
2022-10-02T05:59:29.596Z,95.39
2022-10-02T06:02:02.682Z,95.29
2022-10-02T06:04:44.311Z,94.99
2022-10-02T06:07:18.043Z,94.43
2022-10-02T06:09:51.411Z,94.60
2022-10-02T06:12:30.686Z,94.30
2022-10-02T06:15:04.465Z,94.42
2022-10-02T06:17:40.933Z,94.30
2022-10-02T06:20:34.766Z,94.37
2022-10-02T06:23:06.878Z,94.19
2022-10-02T06:25:43.382Z,93.64
2022-10-02T06:28:26.697Z,94.76
2022-10-02T06:31:03.899Z,94.24
2022-10-02T06:33:33.360Z,94.53
2022-10-02T06:36:22.598Z,93.51
2022-10-02T06:39:09.219Z,94.02
2022-10-02T06:41:48.795Z,93.07
2022-10-02T06:44:25.056Z,93.89
2022-10-02T06:47:25.545Z,92.78
2022-10-02T06:50:11.872Z,92.66
2022-10-02T06:52:45.561Z,92.26
2022-10-02T06:55:25.368Z,90.72
2022-10-02T06:58:24.736Z,88.78
2022-10-02T07:01:03.382Z,87.24
2022-10-02T07:03:46.010Z,87.09
2022-10-02T07:06:27.086Z,84.93
2022-10-02T07:09:12.971Z,85.21
2022-10-02T07:12:04.267Z,84.47
2022-10-02T07:15:16.263Z,84.50
2022-10-02T07:18:09.024Z,84.18
2022-10-02T07:20:58.009Z,82.77
2022-10-02T07:23:42.212Z,82.06
2022-10-02T07:26:42.850Z,81.27
2022-10-02T07:29:46.115Z,79.50
2022-10-02T07:32:49.213Z,80.12
2022-10-02T07:35:35.133Z,79.17
2022-10-02T07:38:08.732Z,80.60
2022-10-02T07:40:48.367Z,80.05
2022-10-02T07:43:40.006Z,80.08
2022-10-02T07:46:18.320Z,78.25
2022-10-02T07:49:07.779Z,76.47
2022-10-02T07:51:51.457Z,74.71
2022-10-02T07:54:46.228Z,71.92
2022-10-02T07:57:54.570Z,71.75
2022-10-02T08:00:25.837Z,70.19
2022-10-02T08:03:01.756Z,68.86
2022-10-02T08:05:45.406Z,66.53
2022-10-02T08:08:21.867Z,65.15
2022-10-02T08:11:10.882Z,67.28
2022-10-02T08:13:59.250Z,66.56
2022-10-02T08:16:43.112Z,65.90
2022-10-02T08:19:22.386Z,65.58
2022-10-02T08:22:03.897Z,66.35
2022-10-02T08:24:47.888Z,66.63
2022-10-02T08:27:45.718Z,66.45
2022-10-02T08:30:18.498Z,65.16
2022-10-02T08:32:48.162Z,64.11
2022-10-02T08:35:19.214Z,62.78
2022-10-02T08:38:14.016Z,61.79
2022-10-02T08:41:05.004Z,62.42
2022-10-02T08:44:10.902Z,62.21
2022-10-02T08:47:07.431Z,60.85
2022-10-02T08:49:59.737Z,59.50
2022-10-02T08:53:01.764Z,58.61
2022-10-02T08:55:55.395Z,59.26
2022-10-02T08:58:59.529Z,58.37
2022-10-02T09:02:09.538Z,57.50
2022-10-02T09:04:38.337Z,58.23
2022-10-02T09:07:41.412Z,57.20
2022-10-02T09:10:47.705Z,57.88
2022-10-02T09:13:24.428Z,60.87
2022-10-02T09:16:35.471Z,58.01
2022-10-02T09:19:19.359Z,58.39
2022-10-02T09:21:51.270Z,58.07
2022-10-02T09:24:50.047Z,57.67
2022-10-02T09:27:42.725Z,55.64
2022-10-02T09:30:24.614Z,55.01
2022-10-02T09:33:39.409Z,56.52
2022-10-02T09:36:37.493Z,55.69
2022-10-02T09:39:19.534Z,59.59
2022-10-02T09:42:45.724Z,55.50
2022-10-02T09:45:22.777Z,60.20
2022-10-02T09:48:07.137Z,57.35
2022-10-02T09:51:07.039Z,57.60
2022-10-02T09:53:49.538Z,56.44
2022-10-02T09:56:29.345Z,58.30
2022-10-02T09:59:34.933Z,57.57
2022-10-02T10:02:33.642Z,55.93
2022-10-02T10:05:13.731Z,55.62
2022-10-02T10:07:59.510Z,57.08
2022-10-02T10:11:00.696Z,54.60
2022-10-02T10:13:52.991Z,55.86
2022-10-02T10:16:44.893Z,55.37
2022-10-02T10:19:42.131Z,54.09
2022-10-02T10:22:19.336Z,57.38
2022-10-02T10:25:05.763Z,57.54
2022-10-02T10:28:08.183Z,56.55
2022-10-02T10:31:05.542Z,55.49
2022-10-02T10:33:54.913Z,53.01
2022-10-02T10:36:56.293Z,53.81
2022-10-02T10:39:36.054Z,53.88
2022-10-02T10:42:40.947Z,54.26
2022-10-02T10:46:08.772Z,52.48
2022-10-02T10:49:02.789Z,53.64
2022-10-02T10:51:41.057Z,54.24
2022-10-02T10:54:27.100Z,57.82
2022-10-02T10:57:29.746Z,56.29
2022-10-02T11:00:03.444Z,54.63
2022-10-02T11:02:53.458Z,51.45
2022-10-02T11:05:42.926Z,52.28
2022-10-02T11:08:19.611Z,51.43
2022-10-02T11:11:02.371Z,50.94
2022-10-02T11:13:39.931Z,48.86
2022-10-02T11:16:34.667Z,47.50
2022-10-02T11:19:33.592Z,48.50
2022-10-02T11:22:10.029Z,48.66
2022-10-02T11:24:50.541Z,47.89
2022-10-02T11:27:27.104Z,47.93
2022-10-02T11:30:03.593Z,46.75
2022-10-02T11:32:37.095Z,47.90
2022-10-02T11:35:26.546Z,46.92
2022-10-02T11:38:32.695Z,48.06
2022-10-02T11:41:22.909Z,47.29
2022-10-02T11:44:17.072Z,46.46
2022-10-02T11:47:03.165Z,49.40
2022-10-02T11:49:53.641Z,53.30
2022-10-02T11:52:37.519Z,47.67
2022-10-02T11:55:22.262Z,48.22
2022-10-02T11:58:06.626Z,47.44
2022-10-02T12:00:45.415Z,46.90
2022-10-02T12:03:31.502Z,45.48
2022-10-02T12:06:24.192Z,46.54
2022-10-02T12:09:09.608Z,45.86
2022-10-02T12:11:42.968Z,45.48
2022-10-02T12:14:36.536Z,45.63
2022-10-02T12:17:33.338Z,44.82
2022-10-02T12:20:40.390Z,44.84
2022-10-02T12:23:36.030Z,45.03
2022-10-02T12:26:38.313Z,45.73
2022-10-02T12:29:10.036Z,45.90
2022-10-02T12:31:51.570Z,45.79
2022-10-02T12:34:38.517Z,45.22
2022-10-02T12:37:47.580Z,43.17
2022-10-02T12:40:37.369Z,41.43
2022-10-02T12:43:29.291Z,43.41
2022-10-02T12:46:21.467Z,44.13
2022-10-02T12:48:49.429Z,45.89
2022-10-02T12:51:55.581Z,47.67
2022-10-02T12:54:41.629Z,45.19
2022-10-02T12:57:41.144Z,46.01
2022-10-02T13:00:18.485Z,46.64
2022-10-02T13:03:01.850Z,48.61
2022-10-02T13:05:57.409Z,47.40
2022-10-02T13:08:46.939Z,47.27
2022-10-02T13:11:35.467Z,46.91
2022-10-02T13:14:32.546Z,47.94
2022-10-02T13:17:29.276Z,47.15
2022-10-02T13:20:21.832Z,48.63
2022-10-02T13:23:01.086Z,49.14
2022-10-02T13:25:39.760Z,49.35
2022-10-02T13:28:36.528Z,48.26
2022-10-02T13:31:36.706Z,49.30
2022-10-02T13:34:11.919Z,48.24
2022-10-02T13:36:52.301Z,48.06
2022-10-02T13:39:49.187Z,49.89
2022-10-02T13:42:30.272Z,49.14
2022-10-02T13:45:16.200Z,49.54
2022-10-02T13:47:59.034Z,49.38
2022-10-02T13:50:45.368Z,49.94
2022-10-02T13:53:41.085Z,48.28
2022-10-02T13:56:26.755Z,48.60
2022-10-02T13:59:00.190Z,49.08
2022-10-02T14:01:36.625Z,49.07
2022-10-02T14:04:23.584Z,47.65
2022-10-02T14:07:05.471Z,49.13
2022-10-02T14:09:58.015Z,49.57
2022-10-02T14:12:33.800Z,48.70
2022-10-02T14:15:13.517Z,49.16
2022-10-02T14:17:59.902Z,49.02
2022-10-02T14:20:36.506Z,49.49
2022-10-02T14:23:04.271Z,48.75
2022-10-02T14:25:49.106Z,49.34
2022-10-02T14:28:26.011Z,48.18
2022-10-02T14:31:08.285Z,49.23
2022-10-02T14:34:00.944Z,50.61
2022-10-02T14:36:40.525Z,49.10
2022-10-02T14:39:20.323Z,50.39
2022-10-02T14:41:58.926Z,50.88
2022-10-02T14:45:08.388Z,51.51
2022-10-02T14:47:58.003Z,50.92
2022-10-02T14:50:43.799Z,51.36
2022-10-02T14:53:43.379Z,51.79
2022-10-02T14:56:38.672Z,51.33
2022-10-02T14:59:38.118Z,51.70
2022-10-02T15:02:13.958Z,52.45
2022-10-02T15:05:09.609Z,52.37
2022-10-02T15:07:42.508Z,51.91
2022-10-02T15:10:18.844Z,54.10
2022-10-02T15:13:01.978Z,53.64
2022-10-02T15:15:43.544Z,53.84
2022-10-02T15:18:40.731Z,54.04
2022-10-02T15:21:30.970Z,52.76
2022-10-02T15:24:14.106Z,54.07
2022-10-02T15:27:08.648Z,53.85
2022-10-02T15:29:51.654Z,54.57
2022-10-02T15:32:28.653Z,53.24
2022-10-02T15:35:15.532Z,54.19
2022-10-02T15:38:18.354Z,54.84
2022-10-02T15:41:04.377Z,54.00
2022-10-02T15:43:35.332Z,54.18
2022-10-02T15:46:31.941Z,53.97
2022-10-02T15:49:33.096Z,55.17
2022-10-02T15:52:13.570Z,55.19
2022-10-02T15:55:02.493Z,54.08
2022-10-02T15:57:49.471Z,54.83
2022-10-02T16:00:21.408Z,55.01
2022-10-02T16:02:54.937Z,55.73
2022-10-02T16:05:44.212Z,53.54
2022-10-02T16:08:25.364Z,54.53
2022-10-02T16:11:19.075Z,56.43
2022-10-02T16:13:55.645Z,56.96
2022-10-02T16:19:35.820Z,56.78
2022-10-02T16:22:28.250Z,56.82
2022-10-02T16:25:11.922Z,57.49
2022-10-02T16:27:53.069Z,57.99
2022-10-02T16:30:24.340Z,60.06
2022-10-02T16:33:09.262Z,58.51
2022-10-02T16:35:50.373Z,59.90
2022-10-02T16:38:41.419Z,59.40
2022-10-02T16:41:36.984Z,60.35
2022-10-02T16:44:34.746Z,60.62
2022-10-02T16:47:05.372Z,61.48
2022-10-02T16:49:45.150Z,62.28
2022-10-02T16:52:27.730Z,63.08
2022-10-02T16:55:06.512Z,63.27
2022-10-02T16:57:43.335Z,63.90
2022-10-02T17:00:25.681Z,63.35
2022-10-02T17:03:02.399Z,63.99
2022-10-02T17:05:53.420Z,64.57
2022-10-02T17:08:23.209Z,65.64
2022-10-02T17:13:42.916Z,65.85
2022-10-02T17:16:12.387Z,65.83
2022-10-02T17:18:58.082Z,65.67
2022-10-02T17:21:38.611Z,65.14
2022-10-02T17:24:18.821Z,66.22
2022-10-02T17:27:01.938Z,67.08
2022-10-02T17:29:39.067Z,67.06
2022-10-02T17:32:10.235Z,66.88
2022-10-02T17:34:59.301Z,66.39
2022-10-02T17:37:48.452Z,67.05
2022-10-02T17:41:06.518Z,66.16
2022-10-02T17:43:50.402Z,65.98
2022-10-02T17:46:38.502Z,66.17
2022-10-02T17:49:22.500Z,68.03
2022-10-02T17:52:19.168Z,70.38
2022-10-02T17:55:53.148Z,71.96
2022-10-02T17:58:48.878Z,71.15
2022-10-02T18:01:31.942Z,72.45
2022-10-02T18:04:17.062Z,73.38
2022-10-02T18:07:15.604Z,75.28
2022-10-02T18:10:10.995Z,75.91
2022-10-02T18:12:53.855Z,76.71
2022-10-02T18:15:32.674Z,77.18
2022-10-02T18:18:08.408Z,76.64
2022-10-02T18:21:01.490Z,77.81
2022-10-02T18:23:38.170Z,77.55
2022-10-02T18:26:39.591Z,78.38
2022-10-02T18:29:28.634Z,78.43
2022-10-02T18:32:15.867Z,78.73
2022-10-02T18:35:14.419Z,79.10
2022-10-02T18:37:50.650Z,79.92
2022-10-02T18:40:22.643Z,79.76
2022-10-02T18:43:27.072Z,80.77
2022-10-02T18:46:10.468Z,80.56
2022-10-02T18:49:08.007Z,80.35
2022-10-02T18:51:37.325Z,80.29
2022-10-02T18:54:11.731Z,79.77
2022-10-02T18:57:02.624Z,80.15
2022-10-02T18:59:56.374Z,79.23
2022-10-02T19:02:26.666Z,80.24
2022-10-02T19:05:22.822Z,81.91
2022-10-02T19:08:08.758Z,80.01
2022-10-02T19:10:36.802Z,80.03
2022-10-02T19:13:17.631Z,80.91
2022-10-02T19:15:48.960Z,80.90
2022-10-02T19:18:19.876Z,81.56
2022-10-02T19:21:08.893Z,81.52
2022-10-02T19:23:47.525Z,82.77
2022-10-02T19:26:24.205Z,83.53
2022-10-02T19:29:20.349Z,83.96
2022-10-02T19:31:48.257Z,83.81
2022-10-02T19:34:20.972Z,84.68
2022-10-02T19:36:54.476Z,82.25
2022-10-02T19:39:37.640Z,83.11
2022-10-02T19:42:18.485Z,84.24
2022-10-02T19:44:49.898Z,83.11
2022-10-02T19:47:37.684Z,83.44
2022-10-02T19:50:08.167Z,82.42
2022-10-02T19:52:52.043Z,83.16
2022-10-02T19:55:27.447Z,84.47
2022-10-02T19:58:04.667Z,84.88
2022-10-02T20:00:38.645Z,85.56
2022-10-02T20:03:20.118Z,85.69
2022-10-02T20:05:53.377Z,85.96
2022-10-02T20:08:29.401Z,86.02
2022-10-02T20:11:28.668Z,86.46
2022-10-02T20:14:28.169Z,87.26
2022-10-02T20:17:11.001Z,86.23
2022-10-02T20:19:52.027Z,86.78
2022-10-02T20:22:29.233Z,86.26
2022-10-02T20:25:21.940Z,85.24
2022-10-02T20:27:57.062Z,84.66
2022-10-02T20:30:33.028Z,85.36
2022-10-02T20:33:07.291Z,85.41
2022-10-02T20:35:45.136Z,86.30
2022-10-02T20:38:25.623Z,86.54
2022-10-02T20:40:56.582Z,86.67
2022-10-02T20:43:45.128Z,86.99
2022-10-02T20:46:29.805Z,88.03
2022-10-02T20:49:08.490Z,88.26
2022-10-02T20:52:14.569Z,89.42
2022-10-02T20:54:54.356Z,89.33
2022-10-02T20:58:01.461Z,89.73
2022-10-02T21:00:57.738Z,91.25
2022-10-02T21:03:34.487Z,90.43
2022-10-02T21:06:08.678Z,90.72
2022-10-02T21:08:56.208Z,90.67
2022-10-02T21:11:50.826Z,91.35
2022-10-02T21:14:37.310Z,91.26
2022-10-02T21:17:13.861Z,91.92
2022-10-02T21:19:44.322Z,91.44
2022-10-02T21:22:43.298Z,92.03
2022-10-02T21:25:41.775Z,91.65
2022-10-02T21:28:43.356Z,91.34
2022-10-02T21:31:20.327Z,90.94
2022-10-02T21:34:30.411Z,91.28
2022-10-02T21:37:22.444Z,90.67
2022-10-02T21:40:08.501Z,90.12
2022-10-02T21:42:42.272Z,90.09
2022-10-02T21:46:08.707Z,89.60
2022-10-02T21:48:55.242Z,89.55
2022-10-02T21:51:41.640Z,88.66
2022-10-02T21:54:31.122Z,88.89
2022-10-02T21:57:35.322Z,89.32
2022-10-02T22:00:22.309Z,88.04
2022-10-02T22:03:10.311Z,88.19
2022-10-02T22:06:00.180Z,87.79
2022-10-02T22:09:07.264Z,87.48
2022-10-02T22:11:47.765Z,88.27
2022-10-02T22:14:39.390Z,87.65
2022-10-02T22:17:36.426Z,88.54
2022-10-02T22:20:25.947Z,88.96
2022-10-02T22:23:14.253Z,89.23
2022-10-02T22:26:09.782Z,87.75
2022-10-02T22:28:50.645Z,88.10
2022-10-02T22:31:55.580Z,88.10
2022-10-02T22:34:28.913Z,88.12
2022-10-02T22:37:40.530Z,88.33
2022-10-02T22:40:14.277Z,88.14
2022-10-02T22:42:50.295Z,87.95
2022-10-02T22:45:22.036Z,88.33
2022-10-02T22:47:54.303Z,87.60
2022-10-02T22:50:50.825Z,87.94
2022-10-02T22:53:30.258Z,87.89
2022-10-02T22:55:58.604Z,87.69
2022-10-02T22:58:53.324Z,87.91
2022-10-02T23:01:28.792Z,88.20
2022-10-02T23:04:19.007Z,88.14
2022-10-02T23:06:52.740Z,88.74
2022-10-02T23:09:49.621Z,88.92
2022-10-02T23:12:41.918Z,89.22
2022-10-02T23:15:21.659Z,89.62
2022-10-02T23:18:12.115Z,88.98
2022-10-02T23:20:46.953Z,88.81
2022-10-02T23:23:28.358Z,88.97
2022-10-02T23:25:58.937Z,88.27
2022-10-02T23:28:37.385Z,88.50
2022-10-02T23:31:31.538Z,88.44
2022-10-02T23:34:19.271Z,87.95
2022-10-02T23:36:54.517Z,88.87
2022-10-02T23:39:31.167Z,88.13
2022-10-02T23:41:59.728Z,88.84
2022-10-02T23:44:42.967Z,89.83
2022-10-02T23:47:11.173Z,88.51
2022-10-02T23:49:53.950Z,89.00
2022-10-02T23:53:07.518Z,89.12
2022-10-02T23:56:03.920Z,89.84
2022-10-02T23:59:10.705Z,88.92
